Time;durP1;ratioP1;P1;durP2;ratioP2;P2;SDS_P1;SDS_P2;PMS_P1;PMS_P2;Temp;Humidity;BMP_temperature;BMP_pressure;BME280_temperature;BME280_humidity;BME280_pressure;Samples;Min_cycle;Max_cycle;Signal;HPM_P1;HPM_P2
2022/11/18 00:01:09;;;;;;;15.75;9.83;;;;;;;20.54;48.48;99610.34;1676736;85;21139;-84
2022/11/18 00:03:36;;;;;;;16.62;10.28;;;;;;;20.54;48.46;99607.58;1692602;83;21093;-84
2022/11/18 00:06:03;;;;;;;15.93;9.88;;;;;;;20.51;48.42;99610.47;1711551;83;21046;-84
2022/11/18 00:08:29;;;;;;;16.85;10.40;;;;;;;20.51;48.39;99598.61;1711409;83;21124;-84
2022/11/18 00:10:55;;;;;;;14.63;9.73;;;;;;;20.51;48.36;99601.38;1697700;83;21554;-84
2022/11/18 00:16:10;;;;;;;15.43;9.50;;;;;;;20.50;48.29;99611.62;1710885;83;21068;-84
2022/11/18 00:18:36;;;;;;;13.68;9.10;;;;;;;20.50;48.27;99610.81;1697098;83;21163;-84
2022/11/18 00:21:05;;;;;;;15.05;9.63;;;;;;;20.49;48.23;99619.70;1682944;84;21052;-84
2022/11/18 00:23:31;;;;;;;13.72;8.83;;;;;;;20.49;48.20;99614.17;1693933;83;21124;-84
2022/11/18 00:26:07;;;;;;;13.48;9.18;;;;;;;20.48;48.16;99623.61;1711387;83;21407;-84
2022/11/18 00:28:40;;;;;;;16.15;9.53;;;;;;;20.48;48.14;99637.42;1697214;83;21139;-84
2022/11/18 00:31:11;;;;;;;14.28;9.33;;;;;;;20.48;48.09;99629.70;1711496;83;21124;-84
2022/11/18 00:33:38;;;;;;;14.65;9.45;;;;;;;20.48;48.07;99629.13;1694631;83;21204;-84
2022/11/18 00:36:06;;;;;;;13.55;8.95;;;;;;;20.47;48.02;99628.89;1711555;83;21009;-84
2022/11/18 00:38:36;;;;;;;14.85;9.08;;;;;;;20.47;48.00;99630.84;1706568;83;21404;-84
2022/11/18 00:41:06;;;;;;;13.98;8.85;;;;;;;20.46;47.96;99625.89;1690640;83;21538;-84
2022/11/18 00:43:33;;;;;;;15.20;8.93;;;;;;;20.45;47.93;99629.80;1700186;83;21100;-84
2022/11/18 00:46:00;;;;;;;13.60;8.25;;;;;;;20.46;47.91;99633.38;1696207;83;21594;-84
2022/11/18 00:48:26;;;;;;;11.80;8.08;;;;;;;20.44;47.90;99630.97;1688141;84;21501;-84
2022/11/18 00:50:55;;;;;;;14.10;8.98;;;;;;;20.44;47.88;99632.36;1691158;84;21539;-83
2022/11/18 00:53:23;;;;;;;12.70;8.78;;;;;;;20.45;47.83;99638.69;1666308;86;21092;-84
2022/11/18 00:55:49;;;;;;;11.85;8.25;;;;;;;20.44;47.82;99637.88;1663232;86;21149;-84
2022/11/18 00:58:18;;;;;;;13.00;8.28;;;;;;;20.44;47.78;99635.69;1670659;84;21155;-84
2022/11/18 01:00:47;;;;;;;13.13;8.60;;;;;;;20.43;47.74;99640.98;1690551;84;21042;-84
2022/11/18 01:03:14;;;;;;;12.63;8.33;;;;;;;20.43;47.74;99639.03;1680827;84;21002;-84
2022/11/18 01:05:40;;;;;;;11.65;8.33;;;;;;;20.43;47.69;99639.03;1663030;85;22231;-84
2022/11/18 01:08:08;;;;;;;11.57;8.08;;;;;;;20.43;47.67;99646.50;1664502;84;38064;-84
2022/11/18 01:10:36;;;;;;;11.90;7.92;;;;;;;20.42;47.64;99645.70;1690313;84;22091;-84
2022/11/18 01:13:22;;;;;;;11.70;7.90;;;;;;;20.41;47.61;99641.31;1676904;84;21010;-84
2022/11/18 01:15:57;;;;;;;11.73;8.08;;;;;;;20.42;47.56;99638.78;1685636;84;21025;-84
2022/11/18 01:18:27;;;;;;;12.37;7.60;;;;;;;20.41;47.52;99638.55;1695440;84;20962;-84
2022/11/18 01:20:55;;;;;;;12.82;8.28;;;;;;;20.40;47.51;99636.95;1672411;84;20979;-84
2022/11/18 01:23:21;;;;;;;12.35;8.03;;;;;;;20.40;47.49;99640.30;1654258;85;21177;-84
2022/11/18 01:25:48;;;;;;;11.73;7.90;;;;;;;20.40;47.44;99640.30;1695755;84;21109;-84
2022/11/18 01:28:16;;;;;;;11.88;8.25;;;;;;;20.39;47.43;99635.91;1663121;85;21069;-84
2022/11/18 01:30:43;;;;;;;11.38;6.85;;;;;;;20.39;47.41;99635.34;1669902;84;21528;-84
2022/11/18 01:33:09;;;;;;;10.80;7.75;;;;;;;20.38;47.37;99630.15;1672750;83;21129;-84
2022/11/18 01:35:40;;;;;;;11.33;7.72;;;;;;;20.38;47.37;99637.05;1684009;85;21070;-84
2022/11/18 01:38:07;;;;;;;10.60;7.10;;;;;;;20.39;47.31;99648.34;1674146;85;21094;-84
2022/11/18 01:40:33;;;;;;;12.20;7.70;;;;;;;20.38;47.26;99643.96;1688536;85;21045;-84
2022/11/18 01:43:00;;;;;;;11.08;7.40;;;;;;;20.37;47.24;99642.34;1654429;85;21067;-84
2022/11/18 01:45:33;;;;;;;11.15;7.12;;;;;;;20.36;47.20;99636.03;1689478;85;21058;-84
2022/11/18 01:48:21;;;;;;;11.33;6.83;;;;;;;20.36;47.18;99630.52;1679626;84;21240;-83
2022/11/18 01:50:51;;;;;;;10.63;7.45;;;;;;;20.36;47.15;99626.37;1684999;85;21100;-84
2022/11/18 01:53:28;;;;;;;11.53;6.87;;;;;;;20.36;47.16;99625.55;1675093;85;21113;-84
2022/11/18 01:55:55;;;;;;;10.93;7.53;;;;;;;20.35;47.11;99620.61;1664158;85;21544;-83
2022/11/18 01:58:26;;;;;;;9.73;6.95;;;;;;;20.35;47.07;99614.27;1675365;85;21121;-84
2022/11/18 02:00:53;;;;;;;9.30;6.22;;;;;;;20.34;47.04;99607.94;1693214;84;21178;-83
2022/11/18 02:03:19;;;;;;;10.68;7.10;;;;;;;20.33;47.04;99606.89;1706296;83;21108;-84
2022/11/18 02:05:47;;;;;;;12.23;7.97;;;;;;;20.33;47.03;99611.03;1683516;84;21025;-84
2022/11/18 02:08:14;;;;;;;10.82;6.85;;;;;;;20.32;46.98;99611.64;1703979;84;21045;-84
2022/11/18 02:10:40;;;;;;;10.30;7.00;;;;;;;20.32;46.99;99626.83;1706727;84;21556;-84
2022/11/18 02:13:07;;;;;;;12.40;6.95;;;;;;;20.33;46.97;99622.08;1653560;85;21780;-84
2022/11/18 02:15:56;;;;;;;10.90;6.60;;;;;;;20.33;46.92;99627.61;1703246;84;21030;-84
2022/11/18 02:18:40;;;;;;;10.50;6.62;;;;;;;20.32;46.91;99635.69;1675992;84;21001;-84
2022/11/18 02:21:21;;;;;;;11.25;6.30;;;;;;;20.31;46.88;99630.73;1707029;84;21097;-84
2022/11/18 02:23:58;;;;;;;12.40;6.75;;;;;;;20.31;46.84;99624.39;1696685;82;21068;-84
2022/11/18 02:26:35;;;;;;;9.30;6.42;;;;;;;20.30;46.80;99627.73;1726483;82;21646;-84
2022/11/18 02:29:19;;;;;;;9.65;6.37;;;;;;;20.29;46.79;99627.49;1705992;82;21048;-84
2022/11/18 02:31:59;;;;;;;10.78;6.70;;;;;;;20.29;46.76;99638.54;1706915;82;20993;-84
2022/11/18 02:35:06;;;;;;;10.43;6.40;;;;;;;20.28;46.74;99634.73;1706463;82;21087;-83
2022/11/18 02:37:50;;;;;;;9.10;6.55;;;;;;;20.28;46.71;99645.77;1685126;83;21111;-83
2022/11/18 02:40:26;;;;;;;9.55;6.55;;;;;;;20.27;46.69;99657.97;1697429;83;21344;-84
2022/11/18 02:43:03;;;;;;;9.70;6.70;;;;;;;20.26;46.66;99653.02;1702647;82;20996;-84
2022/11/18 02:45:30;;;;;;;9.48;6.50;;;;;;;20.26;46.64;99655.77;1727042;82;21135;-84
2022/11/18 02:47:56;;;;;;;9.00;6.10;;;;;;;20.25;46.61;99651.39;1710094;82;21039;-84
2022/11/18 02:50:24;;;;;;;8.60;6.05;;;;;;;20.25;46.62;99656.92;1694618;83;21011;-84
2022/11/18 02:52:56;;;;;;;8.00;5.53;;;;;;;20.25;46.59;99654.72;1717701;82;21189;-84
2022/11/18 02:55:23;;;;;;;8.43;5.95;;;;;;;20.25;46.56;99653.34;1708224;82;21092;-84
2022/11/18 02:57:49;;;;;;;8.78;6.37;;;;;;;20.25;46.53;99652.77;1705869;82;21470;-83
2022/11/18 03:00:16;;;;;;;10.08;6.50;;;;;;;20.24;46.49;99656.67;1665907;84;21115;-84
2022/11/18 03:02:49;;;;;;;8.83;6.25;;;;;;;20.24;46.44;99658.06;1706893;82;21016;-83
2022/11/18 03:05:32;;;;;;;8.53;6.00;;;;;;;20.24;46.42;99662.80;1726958;82;21530;-85
2022/11/18 03:08:04;;;;;;;10.85;6.53;;;;;;;20.24;46.39;99661.42;1717444;83;21479;-84
2022/11/18 03:10:35;;;;;;;6.47;5.00;;;;;;;20.24;46.32;99671.09;1697958;82;21566;-83
2022/11/18 03:13:13;;;;;;;8.75;5.50;;;;;;;20.23;46.29;99662.56;1675274;84;21029;-84
2022/11/18 03:15:57;;;;;;;8.38;5.90;;;;;;;20.23;46.26;99657.84;1697781;84;21047;-84
2022/11/18 03:19:02;;;;;;;7.17;5.53;;;;;;;20.22;46.22;99647.94;1713916;81;21181;-83
2022/11/18 03:21:42;;;;;;;8.08;5.72;;;;;;;20.22;46.16;99649.89;1659562;85;21076;-83
2022/11/18 03:24:19;;;;;;;8.45;5.55;;;;;;;20.21;46.16;99653.80;1705137;83;21048;-84
2022/11/18 03:26:53;;;;;;;7.67;5.37;;;;;;;20.20;46.13;99658.52;1718694;83;21056;-83
2022/11/18 03:29:30;;;;;;;8.63;5.55;;;;;;;20.19;46.10;99651.97;1714029;83;21688;-83
2022/11/18 03:32:09;;;;;;;8.58;5.70;;;;;;;20.19;46.08;99648.64;1726394;82;21601;-83
2022/11/18 03:34:43;;;;;;;7.83;5.53;;;;;;;20.18;46.09;99647.02;1710868;83;21001;-84
2022/11/18 03:37:13;;;;;;;7.75;5.85;;;;;;;20.18;46.05;99646.20;1718297;82;21143;-84
2022/11/18 03:39:47;;;;;;;7.42;5.17;;;;;;;20.18;46.02;99642.06;1706796;83;21057;-83
2022/11/18 03:42:21;;;;;;;7.65;5.17;;;;;;;20.19;46.02;99647.83;1698371;84;21068;-83
2022/11/18 03:44:53;;;;;;;7.75;5.03;;;;;;;20.19;46.00;99645.06;1712812;82;21605;-83
2022/11/18 03:47:27;;;;;;;6.92;4.60;;;;;;;20.20;45.96;99646.09;1699310;83;21063;-83
2022/11/18 03:50:02;;;;;;;8.08;5.08;;;;;;;20.22;45.94;99648.52;1696519;82;21095;-84
2022/11/18 03:52:30;;;;;;;7.20;5.17;;;;;;;20.25;45.92;99646.44;1712869;83;21048;-83
2022/11/18 03:54:58;;;;;;;7.97;4.83;;;;;;;20.29;45.89;99646.83;1726251;82;21131;-84
2022/11/18 03:57:45;;;;;;;6.42;4.80;;;;;;;20.34;45.85;99647.98;1712055;83;21996;-83
2022/11/18 04:00:13;;;;;;;7.20;4.80;;;;;;;20.39;45.79;99643.63;1676008;83;21091;-84
2022/11/18 04:02:40;;;;;;;6.90;4.40;;;;;;;20.47;45.72;99642.71;1711445;83;21029;-83
2022/11/18 04:05:09;;;;;;;6.95;5.20;;;;;;;20.55;45.65;99642.94;1693307;83;21051;-83
2022/11/18 04:07:53;;;;;;;7.83;4.72;;;;;;;20.63;45.56;99649.73;1710338;83;21055;-84
2022/11/18 04:10:23;;;;;;;6.35;4.35;;;;;;;20.71;45.44;99648.02;1724989;82;21157;-84
2022/11/18 04:13:07;;;;;;;6.47;4.37;;;;;;;20.81;45.31;99651.11;1720549;82;21028;-84
2022/11/18 04:15:36;;;;;;;7.37;4.62;;;;;;;20.90;45.19;99657.33;1726280;82;21617;-83
2022/11/18 04:18:03;;;;;;;7.25;4.58;;;;;;;21.02;45.05;99662.61;1677312;84;21578;-84
2022/11/18 04:20:31;;;;;;;7.75;4.70;;;;;;;21.11;44.96;99660.53;1722348;83;21623;-84
2022/11/18 04:22:59;;;;;;;7.15;4.60;;;;;;;21.21;44.80;99655.94;1697400;83;21582;-84
2022/11/18 04:25:26;;;;;;;5.62;4.12;;;;;;;21.34;44.66;99668.59;1707061;82;21092;-84
2022/11/18 04:27:52;;;;;;;6.90;4.67;;;;;;;21.43;44.53;99665.89;1704499;83;21107;-84
2022/11/18 04:30:19;;;;;;;7.05;4.37;;;;;;;21.54;44.42;99658.48;1698193;84;21490;-84
2022/11/18 04:32:45;;;;;;;6.30;3.98;;;;;;;21.65;44.26;99662.36;1706649;83;21067;-84
2022/11/18 04:35:12;;;;;;;5.97;4.28;;;;;;;21.75;44.14;99663.25;1722420;82;21112;-84
2022/11/18 04:37:38;;;;;;;6.03;3.92;;;;;;;21.85;44.02;99664.14;1727370;82;21048;-84
2022/11/18 04:40:07;;;;;;;7.25;4.12;;;;;;;21.93;43.90;99663.78;1706664;82;21731;-84
2022/11/18 04:42:39;;;;;;;7.40;4.65;;;;;;;22.03;43.81;99666.83;1723689;82;21067;-84
2022/11/18 04:45:07;;;;;;;5.08;3.83;;;;;;;22.10;43.67;99669.81;1690576;83;21149;-84
2022/11/18 04:47:34;;;;;;;6.10;4.10;;;;;;;22.17;43.56;99671.38;1717986;82;21122;-84
2022/11/18 04:50:00;;;;;;;8.40;4.15;;;;;;;22.23;43.44;99666.39;1705854;83;21178;-84
2022/11/18 04:52:26;;;;;;;7.40;4.20;;;;;;;22.29;43.37;99672.68;1708834;82;21059;-85
2022/11/18 04:54:53;;;;;;;7.35;4.15;;;;;;;22.35;43.26;99685.70;1726929;82;21554;-84
2022/11/18 04:57:20;;;;;;;7.08;4.60;;;;;;;22.40;43.20;99690.98;1717496;82;21048;-84
2022/11/18 04:59:46;;;;;;;6.60;4.08;;;;;;;22.47;43.10;99691.16;1698023;83;21016;-84
2022/11/18 05:02:12;;;;;;;9.13;4.97;;;;;;;22.52;42.99;99690.09;1718928;82;21080;-84
2022/11/18 05:04:39;;;;;;;6.85;4.40;;;;;;;22.57;42.87;99691.22;1679349;84;21045;-84
2022/11/18 05:07:06;;;;;;;7.08;4.37;;;;;;;22.62;42.78;99692.31;1682052;84;21113;-84
2022/11/18 05:09:33;;;;;;;7.25;4.50;;;;;;;22.67;42.71;99702.56;1665476;84;21057;-84
2022/11/18 05:14:45;;;;;;;6.53;3.90;;;;;;;22.75;42.58;99708.53;1673941;84;21113;-85
2022/11/18 05:17:11;;;;;;;7.35;4.20;;;;;;;22.80;42.53;99696.95;1670106;84;21372;-85
2022/11/18 05:19:40;;;;;;;6.00;4.03;;;;;;;22.84;42.46;99692.29;1678260;84;21120;-85
2022/11/18 05:22:07;;;;;;;9.63;4.55;;;;;;;22.85;42.42;99690.56;1670453;84;22147;-84
2022/11/18 05:24:35;;;;;;;7.90;4.78;;;;;;;22.86;42.29;99701.88;1663987;84;21054;-84
2022/11/18 05:27:02;;;;;;;8.75;4.75;;;;;;;22.85;42.18;99698.88;1672530;84;21097;-81
2022/11/18 05:29:28;;;;;;;11.25;4.47;;;;;;;22.85;42.04;99700.27;1663213;86;21101;-83
2022/11/18 05:32:04;;;;;;;7.37;4.55;;;;;;;22.86;41.90;99707.42;1673512;84;21527;-83
2022/11/18 05:34:31;;;;;;;12.90;4.95;;;;;;;22.85;41.76;99707.20;1684754;84;21133;-84
2022/11/18 05:36:57;;;;;;;10.63;4.62;;;;;;;22.83;41.66;99703.96;1684048;83;21516;-83
2022/11/18 05:39:24;;;;;;;12.93;5.17;;;;;;;22.82;41.52;99704.34;1680726;84;21123;-84
2022/11/18 05:44:35;;;;;;;13.25;5.03;;;;;;;22.75;41.32;99704.37;1695518;83;21092;-82
2022/11/18 05:47:01;;;;;;;13.80;4.97;;;;;;;22.71;41.25;99705.45;1697384;83;21608;-80
2022/11/18 05:49:28;;;;;;;12.05;5.25;;;;;;;22.64;41.20;99708.83;1682859;83;21947;-84
2022/11/18 05:51:55;;;;;;;9.98;5.35;;;;;;;22.58;41.11;99708.86;1679944;84;21026;-86
2022/11/18 05:54:21;;;;;;;10.58;5.50;;;;;;;22.54;41.08;99707.97;1683910;83;21573;-85
2022/11/18 05:56:48;;;;;;;15.48;6.75;;;;;;;22.47;41.05;99709.75;1687352;83;21733;-86
2022/11/18 05:59:14;;;;;;;14.68;6.67;;;;;;;22.41;41.08;99718.91;1699552;83;21109;-84
2022/11/18 06:01:54;;;;;;;16.00;6.10;;;;;;;22.35;41.10;99718.14;1677205;83;21053;-86
2022/11/18 06:04:25;;;;;;;18.48;6.80;;;;;;;22.26;41.24;99730.20;1674311;83;21053;-82
2022/11/18 06:06:53;;;;;;;25.48;6.45;;;;;;;22.23;41.21;99721.80;1688730;82;21081;-84
2022/11/18 06:09:22;;;;;;;22.20;6.55;;;;;;;22.23;41.27;99723.19;1692050;82;21045;-83
2022/11/18 06:11:52;;;;;;;18.62;6.60;;;;;;;22.22;41.24;99718.80;1699676;83;21120;-84
2022/11/18 06:14:29;;;;;;;22.63;6.70;;;;;;;22.21;41.10;99717.17;1697713;82;21192;-84
2022/11/18 06:16:59;;;;;;;17.95;6.12;;;;;;;22.22;41.05;99710.48;1678422;83;21105;-84
2022/11/18 06:19:26;;;;;;;16.60;5.53;;;;;;;22.24;40.95;99703.41;1692395;82;21100;-84
2022/11/18 06:21:52;;;;;;;12.90;5.50;;;;;;;22.28;40.87;99711.24;1678847;82;21109;-84
2022/11/18 06:24:19;;;;;;;12.28;5.28;;;;;;;22.34;40.77;99713.19;1697214;83;21047;-84
2022/11/18 06:26:45;;;;;;;12.28;5.62;;;;;;;22.38;40.63;99717.42;1699997;82;21720;-83
2022/11/18 06:29:13;;;;;;;14.15;5.67;;;;;;;22.41;40.51;99718.91;1703458;82;21483;-80
2022/11/18 06:31:39;;;;;;;11.73;6.53;;;;;;;22.43;40.39;99723.52;1641777;85;21128;-83
2022/11/18 06:34:05;;;;;;;11.63;5.53;;;;;;;22.46;40.31;99720.03;1664193;84;20996;-84
2022/11/18 06:36:32;;;;;;;9.33;5.20;;;;;;;22.48;40.26;99727.42;1649147;82;21093;-83
2022/11/18 06:39:03;;;;;;;11.22;5.65;;;;;;;22.49;40.17;99729.02;1693882;82;21289;-83
2022/11/18 06:41:31;;;;;;;9.20;5.35;;;;;;;22.52;40.20;99736.64;1702334;82;21061;-84
2022/11/18 06:44:03;;;;;;;10.20;5.53;;;;;;;22.55;40.25;99731.76;1688198;82;21072;-83
2022/11/18 06:49:16;;;;;;;17.20;5.17;;;;;;;22.61;40.32;99720.64;1676858;85;21125;-82
2022/11/18 06:51:42;;;;;;;15.72;5.05;;;;;;;22.64;40.56;99716.34;1678606;84;21152;-84
2022/11/18 06:54:09;;;;;;;13.83;4.83;;;;;;;22.59;41.08;99714.63;1663232;84;21137;-86
2022/11/18 06:56:39;;;;;;;15.32;4.70;;;;;;;22.59;41.26;99715.21;1695763;84;21400;-86
2022/11/18 06:59:05;;;;;;;15.55;6.17;;;;;;;22.59;41.42;99714.63;1696487;82;21519;-86
2022/11/18 07:01:35;;;;;;;13.28;5.10;;;;;;;22.59;41.26;99711.05;1666379;84;21162;-88
2022/11/18 07:04:02;;;;;;;11.63;5.37;;;;;;;22.57;41.17;99710.05;1671625;82;21594;-84
2022/11/18 07:06:31;;;;;;;16.65;5.87;;;;;;;22.56;41.03;99713.97;1670946;84;21468;-83
2022/11/18 07:09:00;;;;;;;9.88;5.30;;;;;;;22.57;41.21;99713.39;1681401;82;21092;-84
2022/11/18 07:11:32;;;;;;;13.98;5.17;;;;;;;22.60;41.43;99714.06;1717522;81;21131;-83
2022/11/18 07:14:00;;;;;;;10.82;5.35;;;;;;;22.62;41.41;99713.91;1725434;81;21112;-85
2022/11/18 07:16:27;;;;;;;13.62;6.33;;;;;;;22.66;41.35;99708.48;1695106;83;21085;-83
2022/11/18 07:18:54;;;;;;;13.40;5.78;;;;;;;22.67;41.38;99707.30;1700811;82;21038;-84
2022/11/18 07:21:28;;;;;;;12.95;5.62;;;;;;;22.68;41.34;99713.08;1698966;83;21061;-87
2022/11/18 07:23:55;;;;;;;11.45;4.90;;;;;;;22.68;41.45;99709.72;1699166;82;22364;-86
2022/11/18 07:26:27;;;;;;;13.60;5.12;;;;;;;22.68;41.52;99708.91;1692742;83;22314;-85
2022/11/18 07:28:54;;;;;;;8.23;4.70;;;;;;;22.66;41.61;99706.48;1688790;83;21993;-84
2022/11/18 07:31:20;;;;;;;11.08;5.03;;;;;;;22.65;41.69;99717.38;1704275;82;21069;-85
2022/11/18 07:33:46;;;;;;;10.28;5.28;;;;;;;22.64;41.78;99711.60;1694573;83;21085;-86
2022/11/18 07:36:15;;;;;;;9.45;4.62;;;;;;;22.63;41.89;99711.37;1699964;83;21064;-85
2022/11/18 07:38:44;;;;;;;13.30;5.42;;;;;;;22.62;41.95;99704.78;1705238;82;21076;-85
2022/11/18 07:41:17;;;;;;;12.03;5.08;;;;;;;22.59;42.03;99703.55;1709570;82;21606;-85
2022/11/18 07:43:44;;;;;;;13.83;6.03;;;;;;;22.58;42.12;99703.89;1707512;82;21076;-87
2022/11/18 07:46:23;;;;;;;21.70;7.35;;;;;;;22.55;42.19;99704.04;1697947;82;21095;-84
2022/11/18 07:48:52;;;;;;;14.80;6.62;;;;;;;22.52;42.26;99704.77;1702353;81;21683;-87
2022/11/18 07:51:24;;;;;;;14.58;7.35;;;;;;;22.48;42.27;99691.97;1702278;81;21062;-82
2022/11/18 07:53:55;;;;;;;14.73;6.40;;;;;;;22.45;42.40;99693.47;1701240;82;21144;-86
2022/11/18 07:56:20;;;;;;;16.65;6.25;;;;;;;22.41;42.50;99688.42;1699754;82;21129;-82
2022/11/18 07:58:53;;;;;;;21.00;5.92;;;;;;;22.38;42.64;99686.95;1698616;82;21748;-86
2022/11/18 08:01:22;;;;;;;26.73;7.03;;;;;;;22.36;42.75;99682.35;1697911;82;21104;-86
2022/11/18 08:03:56;;;;;;;23.45;6.00;;;;;;;22.28;42.88;99677.99;1706921;82;21131;-86
2022/11/18 08:06:23;;;;;;;15.03;6.62;;;;;;;22.23;43.29;99671.35;1709238;81;21167;-84
2022/11/18 08:08:49;;;;;;;18.30;7.60;;;;;;;22.21;43.44;99661.77;1685114;83;21053;-86
2022/11/18 08:11:21;;;;;;;17.52;6.62;;;;;;;22.18;43.67;99674.38;1712596;82;21130;-85
2022/11/18 08:13:47;;;;;;;39.80;7.70;;;;;;;22.16;43.81;99676.69;1698842;82;21096;-85
2022/11/18 08:16:16;;;;;;;40.30;7.58;;;;;;;22.14;43.91;99672.09;1703192;82;21066;-81
2022/11/18 08:18:43;;;;;;;21.87;6.92;;;;;;;22.13;44.11;99677.41;1700114;81;21254;-85
2022/11/18 08:21:10;;;;;;;19.92;6.00;;;;;;;22.12;44.20;99674.98;1710984;82;21093;-83
2022/11/18 08:23:36;;;;;;;22.27;6.90;;;;;;;22.11;44.32;99670.02;1687825;83;21447;-85
2022/11/18 08:26:08;;;;;;;24.70;6.90;;;;;;;22.10;44.42;99672.58;1708953;81;21100;-84
2022/11/18 08:28:36;;;;;;;26.82;6.75;;;;;;;22.10;44.53;99678.12;1710159;81;21064;-83
2022/11/18 08:31:11;;;;;;;24.75;7.40;;;;;;;22.09;44.71;99677.08;1710865;83;21973;-82
2022/11/18 08:33:37;;;;;;;32.13;7.35;;;;;;;22.08;44.85;99682.39;1701081;82;21086;-79
2022/11/18 08:36:15;;;;;;;23.75;7.30;;;;;;;22.07;45.06;99691.27;1705732;82;21134;-80
2022/11/18 08:38:44;;;;;;;26.25;7.78;;;;;;;22.05;45.18;99692.22;1694420;81;21120;-81
2022/11/18 08:41:17;;;;;;;20.08;6.60;;;;;;;22.05;45.27;99699.72;1706863;81;21046;-86
2022/11/18 08:43:44;;;;;;;20.00;7.80;;;;;;;22.05;45.57;99701.11;1660035;84;21056;-85
2022/11/18 08:46:11;;;;;;;20.55;7.85;;;;;;;22.08;45.83;99692.89;1693323;83;21042;-87
2022/11/18 08:48:37;;;;;;;19.17;7.30;;;;;;;22.13;45.86;99698.75;1693700;83;21053;-86
2022/11/18 08:51:04;;;;;;;18.82;7.53;;;;;;;22.17;45.77;99700.46;1701134;83;21931;-85
2022/11/18 08:53:32;;;;;;;31.20;8.33;;;;;;;22.20;45.71;99691.44;1707059;82;21482;-82
2022/11/18 08:56:02;;;;;;;31.40;9.85;;;;;;;22.23;45.46;99697.67;1710967;82;21065;-86
2022/11/18 08:58:38;;;;;;;21.97;8.73;;;;;;;22.25;44.99;99701.45;1728859;82;21136;-83
2022/11/18 09:01:08;;;;;;;28.83;9.95;;;;;;;22.24;44.87;99690.14;1699325;82;21096;-87
2022/11/18 09:03:38;;;;;;;33.30;8.18;;;;;;;22.30;44.84;99695.08;1700387;82;21088;-87
2022/11/18 09:06:15;;;;;;;30.12;8.68;;;;;;;22.37;44.77;99693.64;1667495;84;21082;-86
2022/11/18 09:08:45;;;;;;;22.55;8.50;;;;;;;22.46;44.74;99694.28;1709722;81;22067;-85
2022/11/18 09:11:29;;;;;;;22.55;8.18;;;;;;;22.50;44.70;99689.05;1716087;82;21101;-87
2022/11/18 09:14:04;;;;;;;23.22;7.90;;;;;;;22.53;44.59;99686.95;1660455;84;21088;-84
2022/11/18 09:16:32;;;;;;;32.08;8.73;;;;;;;22.55;44.50;99692.95;1672974;84;21071;-85
2022/11/18 09:19:18;;;;;;;23.47;9.73;;;;;;;22.57;44.40;99693.98;1676639;83;21136;-83
2022/11/18 09:22:11;;;;;;;;;;;;;;;;;;;;;
2022/11/18 09:24:36;;;;;;;22.62;9.53;;;;;;;22.56;44.15;99682.09;1676039;83;21504;-83
2022/11/18 09:27:13;;;;;;;21.57;8.73;;;;;;;22.55;44.07;99683.83;1687439;83;21081;-83
2022/11/18 09:29:49;;;;;;;23.90;9.38;;;;;;;22.53;44.03;99682.78;1685008;83;22377;-85
2022/11/18 09:32:15;;;;;;;22.27;10.25;;;;;;;22.52;43.97;99676.23;1674987;83;21136;-84
2022/11/18 09:35:02;;;;;;;17.02;9.38;;;;;;;22.50;43.90;99664.69;1676158;84;21115;-86
2022/11/18 09:37:40;;;;;;;19.23;10.58;;;;;;;22.48;43.90;99666.45;1687942;84;21082;-78
2022/11/18 09:40:15;;;;;;;18.52;9.15;;;;;;;22.45;43.80;99649.13;1596858;87;21164;-86
2022/11/18 09:43:06;;;;;;;18.12;9.65;;;;;;;22.42;43.79;99648.47;1665010;84;21065;-82
2022/11/18 09:45:37;;;;;;;19.45;10.23;;;;;;;22.39;43.70;99642.26;1698665;82;21108;-89
2022/11/18 09:48:15;;;;;;;24.45;10.88;;;;;;;22.34;43.67;99631.44;1713952;82;21149;-81
2022/11/18 09:50:49;;;;;;;20.23;11.10;;;;;;;22.29;43.68;99625.58;1696892;82;21173;-87
2022/11/18 09:53:28;;;;;;;21.40;11.03;;;;;;;22.26;44.12;99617.18;1696238;82;21396;-88
2022/11/18 09:56:45;;;;;;;;;;;;;;;22.23;44.27;99612.36;1694079;83;21061;-87
2022/11/18 09:59:13;;;;;;;29.85;11.83;;;;;;;22.17;44.27;99601.31;1670835;82;20531;-88
2022/11/18 10:01:58;;;;;;;34.03;12.65;;;;;;;22.12;44.23;99591.30;1687281;83;21108;-88
2022/11/18 10:04:57;;;;;;;27.52;12.30;;;;;;;22.10;44.18;99590.86;1709615;81;21124;-89
2022/11/18 10:08:27;;;;;;;;;;;;;;;;;;;;;
2022/11/18 10:11:47;;;;;;;;;;;;;;;;;;;;;
2022/11/18 10:14:48;;;;;;;21.65;10.68;;;;;;;22.04;43.66;99572.89;1579777;87;21630;-87
2022/11/18 10:18:16;;;;;;;17.80;9.25;;;;;;;22.04;43.80;99574.27;1546856;90;21164;-88
2022/11/18 10:25:45;;;;;;;;;;;;;;;;;;;;;
2022/11/18 10:28:31;;;;;;;21.90;13.00;;;;;;;22.01;43.93;99552.03;1514909;91;21717;-89
2022/11/18 10:31:16;;;;;;;25.52;11.80;;;;;;;21.99;43.97;99542.69;1583022;88;21752;-85
2022/11/18 10:33:52;;;;;;;19.80;10.25;;;;;;;21.99;43.92;99528.03;1561069;88;21190;-86
2022/11/18 10:36:58;;;;;;;19.48;11.38;;;;;;;21.96;43.90;99527.37;1584424;88;21127;-90
2022/11/18 10:40:16;;;;;;;17.17;10.75;;;;;;;21.94;43.84;99527.72;1484024;94;21757;-87
2022/11/18 10:43:01;;;;;;;19.52;10.38;;;;;;;21.92;43.85;99525.06;1514612;91;21349;-86
2022/11/18 10:45:32;;;;;;;18.30;11.35;;;;;;;21.90;43.86;99521.25;1512412;91;21431;-85
2022/11/18 10:48:24;;;;;;;21.55;12.00;;;;;;;21.88;43.77;99509.75;1509994;92;22000;-84
2022/11/18 10:51:18;;;;;;;;;;;;;;;;;;;;;
2022/11/18 10:53:36;;;;;;;26.95;12.65;;;;;;;21.82;43.48;99505.05;1568917;89;21186;-86
2022/11/18 10:56:12;;;;;;;22.40;11.68;;;;;;;21.76;43.48;99507.88;1545713;90;21222;-83
2022/11/18 10:59:00;;;;;;;29.18;11.60;;;;;;;21.76;44.07;99508.45;1564717;88;21200;-85
2022/11/18 11:01:25;;;;;;;;;;;;;;;21.79;44.39;99502.20;1611954;86;134214;-77
2022/11/18 11:04:18;;;;;;;31.27;11.65;;;;;;;21.76;44.45;99498.19;1629691;86;20675;-79
2022/11/18 11:06:48;;;;;;;30.20;11.68;;;;;;;21.72;44.48;99494.52;1625426;87;22064;-76
2022/11/18 11:09:27;;;;;;;26.70;11.80;;;;;;;21.71;44.64;99500.41;1608434;87;21102;-78
2022/11/18 11:12:03;;;;;;;32.33;10.82;;;;;;;21.69;44.48;99495.22;1611027;87;21183;-78
2022/11/18 11:14:56;;;;;;;23.92;11.12;;;;;;;21.67;44.39;99491.20;1641284;86;21171;-77
2022/11/18 11:17:33;;;;;;;24.95;10.43;;;;;;;21.66;44.30;99492.36;1746463;78;21889;-77
2022/11/18 11:20:17;;;;;;;20.27;10.28;;;;;;;21.65;44.27;99496.28;1753249;79;21380;-76
2022/11/18 11:22:50;;;;;;;23.90;11.25;;;;;;;21.64;44.26;99496.86;1801643;78;21610;-78
2022/11/18 11:25:47;;;;;;;20.95;9.70;;;;;;;21.64;44.19;99502.39;1807999;78;21038;-79
2022/11/18 11:28:38;;;;;;;22.13;10.03;;;;;;;21.62;44.24;99506.11;1788727;78;21180;-78
2022/11/18 11:31:46;;;;;;;19.77;10.50;;;;;;;21.59;44.30;99497.14;1798612;78;21129;-78
2022/11/18 11:34:40;;;;;;;20.37;9.35;;;;;;;21.58;44.32;99484.46;1799649;78;21132;-78
2022/11/18 11:37:23;;;;;;;17.65;10.63;;;;;;;21.57;44.30;99481.46;1794230;78;21046;-78
2022/11/18 11:40:28;;;;;;;14.60;9.30;;;;;;;21.55;44.20;99480.22;1794505;78;21103;-79
2022/11/18 11:43:27;;;;;;;15.95;9.38;;;;;;;21.53;44.13;99486.67;1796828;78;21484;-78
2022/11/18 11:46:25;;;;;;;15.63;9.33;;;;;;;21.51;44.02;99485.66;1802856;78;21200;-78
2022/11/18 11:49:28;;;;;;;15.65;10.18;;;;;;;21.49;43.94;99476.90;1794487;78;21053;-79
2022/11/18 11:52:07;;;;;;;20.10;10.18;;;;;;;21.47;43.56;99474.28;1798312;79;21085;-79
2022/11/18 11:54:51;;;;;;;21.45;10.18;;;;;;;21.38;43.70;99477.21;1794437;77;21117;-81
2022/11/18 11:57:48;;;;;;;22.27;11.22;;;;;;;21.37;43.79;99477.78;1798612;77;21136;-79
2022/11/18 12:00:16;;;;;;;21.45;9.68;;;;;;;21.39;43.77;99480.17;1794158;78;21503;-79
2022/11/18 12:03:18;;;;;;;24.35;11.85;;;;;;;21.37;43.81;99470.87;1804450;77;21091;-80
2022/11/18 12:05:45;;;;;;;23.70;10.88;;;;;;;21.35;43.94;99453.80;1807616;77;21402;-78
2022/11/18 12:08:28;;;;;;;21.90;10.70;;;;;;;21.34;44.00;99459.71;1830711;77;21045;-80
2022/11/18 12:11:41;;;;;;;28.75;11.15;;;;;;;21.32;44.04;99455.91;1765065;78;21062;-80
2022/11/18 12:14:39;;;;;;;21.17;10.05;;;;;;;21.32;44.16;99450.38;1787043;78;21058;-78
2022/11/18 12:17:20;;;;;;;20.62;10.25;;;;;;;21.31;44.24;99450.14;1779013;79;21061;-79
2022/11/18 12:19:46;;;;;;;15.18;10.38;;;;;;;21.31;44.25;99454.29;1790066;79;21113;-78
2022/11/18 12:22:12;;;;;;;16.85;9.95;;;;;;;21.30;44.19;99460.98;1779319;78;21065;-78